Terminal Aerodrome Forecast
Issued by NWS Columbia, SC

Home | Current Version | Previous Version | Text Only | Print | Product List | Glossary On
Versions: 1 2 3 4 5 6 7 8 9 10 11 12 13 14 15 16 17 18 19 20 21 22 23 24 25 26 27 28 29 30 31 32 33 34
000
FTUS42 KCAE 040533
TAFCAE
TAF
KCAE 040533Z 0406/0506 14003KT P6SM FEW250
     FM040900 00000KT 6SM BR SCT010
     FM041000 00000KT 4SM BR SCT008
     FM041200 VRB03KT P6SM BKN012
     FM041400 VRB05KT P6SM SCT040
     FM050000 VRB03KT P6SM SKC=

USA.gov is the U.S. government's official web portal to all federal, state and local government web resources and services.